Time;durP1;ratioP1;P1;durP2;ratioP2;P2;SDS_P1;SDS_P2;PMS_P1;PMS_P2;Temp;Humidity;BMP_temperature;BMP_pressure;BME280_temperature;BME280_humidity;BME280_pressure;Samples;Min_cycle;Max_cycle;Signal;HPM_P1;HPM_P2
2023/06/16 00:02:00;;;;;;;73.67;12.23;;;20.50;1.00;;;;;;5096857;28;20224;-82
2023/06/16 00:04:27;;;;;;;74.30;10.70;;;20.40;1.00;;;;;;5078823;28;20168;-82
2023/06/16 00:06:53;;;;;;;73.97;13.23;;;20.40;1.00;;;;;;5096003;28;20232;-82
2023/06/16 00:09:22;;;;;;;74.00;12.77;;;20.40;1.00;;;;;;5078851;28;20919;-82
2023/06/16 00:11:48;;;;;;;84.20;12.77;;;20.30;1.00;;;;;;5078593;28;20767;-82
2023/06/16 00:14:13;;;;;;;71.73;12.40;;;20.30;1.00;;;;;;5078814;28;20432;-82
2023/06/16 00:16:39;;;;;;;72.23;12.60;;;20.30;1.00;;;;;;5095446;28;20202;-82
2023/06/16 00:19:05;;;;;;;77.10;12.07;;;20.20;1.00;;;;;;5095548;28;20211;-82
2023/06/16 00:21:37;;;;;;;72.27;11.70;;;20.20;1.00;;;;;;5095287;28;20171;-82
2023/06/16 00:24:08;;;;;;;72.87;11.93;;;20.20;1.00;;;;;;5095155;28;20379;-82
2023/06/16 00:26:34;;;;;;;72.63;12.40;;;20.20;1.00;;;;;;5095819;28;20391;-83
2023/06/16 00:29:02;;;;;;;72.37;10.83;;;20.10;1.00;;;;;;5077665;28;20416;-82
2023/06/16 00:31:29;;;;;;;71.93;10.70;;;20.00;1.00;;;;;;5079015;28;20472;-83
2023/06/16 00:33:54;;;;;;;73.77;12.10;;;20.10;1.00;;;;;;5077928;28;20441;-83
2023/06/16 00:36:23;;;;;;;72.40;12.00;;;20.00;1.00;;;;;;5096644;28;20404;-83
2023/06/16 00:38:49;;;;;;;73.17;10.57;;;20.00;1.00;;;;;;5095479;28;20226;-83
2023/06/16 00:41:14;;;;;;;75.93;12.50;;;20.00;1.00;;;;;;5095563;28;20436;-82
2023/06/16 00:43:40;;;;;;;71.60;11.17;;;20.00;1.00;;;;;;5078604;28;20173;-82
2023/06/16 00:46:09;;;;;;;75.70;11.20;;;20.00;1.00;;;;;;5096082;28;20165;-83
2023/06/16 00:48:35;;;;;;;72.57;10.50;;;20.00;1.00;;;;;;5095633;28;20178;-83
2023/06/16 00:51:02;;;;;;;74.37;9.90;;;19.90;1.00;;;;;;5077586;28;20417;-82
2023/06/16 00:53:30;;;;;;;73.83;11.60;;;19.90;1.00;;;;;;5078103;28;20439;-83
2023/06/16 00:55:57;;;;;;;74.83;10.90;;;19.90;1.00;;;;;;5078320;28;20407;-83
2023/06/16 00:58:23;;;;;;;72.27;10.77;;;19.80;1.00;;;;;;5095589;28;20450;-83
2023/06/16 01:00:49;;;;;;;73.77;11.37;;;19.80;1.00;;;;;;5078070;28;20442;-82
2023/06/16 01:03:16;;;;;;;73.97;10.33;;;19.80;1.00;;;;;;5095169;28;20410;-83
2023/06/16 01:05:42;;;;;;;73.70;11.03;;;19.70;1.00;;;;;;5078231;28;20411;-83
2023/06/16 01:08:17;;;;;;;72.23;10.23;;;19.70;1.00;;;;;;5077341;28;20421;-82
2023/06/16 01:11:00;;;;;;;72.77;10.00;;;19.70;1.00;;;;;;5095228;28;20214;-82
2023/06/16 01:13:56;;;;;;;72.70;10.53;;;19.60;1.00;;;;;;5095838;28;20442;-83
2023/06/16 01:16:30;;;;;;;76.27;11.07;;;19.50;1.00;;;;;;5095795;28;20479;-82
2023/06/16 01:18:58;;;;;;;72.37;10.10;;;19.50;1.00;;;;;;5077619;28;20443;-82
2023/06/16 01:21:37;;;;;;;74.50;10.80;;;19.50;1.00;;;;;;5095256;28;20394;-83
2023/06/16 01:24:16;;;;;;;70.97;9.60;;;19.40;1.00;;;;;;5076270;28;20411;-83
2023/06/16 01:26:46;;;;;;;73.73;10.03;;;19.40;1.00;;;;;;5095302;28;20427;-82
2023/06/16 01:29:14;;;;;;;72.50;9.40;;;19.30;1.00;;;;;;5078020;28;20419;-83
2023/06/16 01:31:42;;;;;;;71.67;10.10;;;19.30;1.00;;;;;;5076924;28;20419;-83
2023/06/16 01:34:10;;;;;;;71.17;9.43;;;19.30;1.00;;;;;;5094109;28;20413;-82
2023/06/16 01:36:39;;;;;;;73.23;10.03;;;19.20;1.00;;;;;;5095029;28;20407;-83
2023/06/16 01:39:07;;;;;;;74.20;10.73;;;19.20;1.00;;;;;;5094729;28;20475;-82
2023/06/16 01:41:33;;;;;;;71.20;9.10;;;19.10;1.00;;;;;;5077472;28;20417;-83
2023/06/16 01:44:00;;;;;;;74.50;9.13;;;19.20;1.00;;;;;;5074910;28;20410;-82
2023/06/16 01:46:27;;;;;;;71.20;8.07;;;19.10;1.00;;;;;;5094013;28;20437;-82
2023/06/16 01:48:53;;;;;;;75.70;9.67;;;19.10;1.00;;;;;;5094753;28;20444;-83
2023/06/16 01:51:20;;;;;;;71.03;8.47;;;19.10;1.00;;;;;;5094272;28;20406;-82
2023/06/16 01:53:46;;;;;;;75.33;9.93;;;19.10;1.00;;;;;;5076865;28;20417;-82
2023/06/16 01:56:13;;;;;;;71.10;8.17;;;19.00;1.00;;;;;;5093664;28;20406;-82
2023/06/16 01:58:39;;;;;;;72.17;9.30;;;19.00;1.00;;;;;;5093963;28;20455;-82
2023/06/16 02:01:19;;;;;;;70.70;8.80;;;19.00;1.00;;;;;;5094501;28;20415;-82
2023/06/16 02:04:14;;;;;;;70.87;8.23;;;19.00;1.00;;;;;;5076748;28;20493;-82
2023/06/16 02:06:51;;;;;;;73.00;8.20;;;19.00;1.00;;;;;;5074317;28;20401;-82
2023/06/16 02:09:18;;;;;;;71.67;8.27;;;18.80;1.00;;;;;;5077090;28;20464;-83
2023/06/16 02:11:45;;;;;;;71.00;8.40;;;18.90;1.00;;;;;;5094138;28;20432;-82
2023/06/16 02:14:11;;;;;;;69.70;7.90;;;18.90;1.00;;;;;;5076559;28;20954;-82
2023/06/16 02:16:39;;;;;;;71.30;8.30;;;18.80;1.00;;;;;;5094011;28;20436;-82
2023/06/16 02:19:05;;;;;;;74.87;8.40;;;18.80;1.00;;;;;;5076284;28;20196;-82
2023/06/16 02:21:34;;;;;;;72.00;8.13;;;18.70;1.00;;;;;;5076389;28;20402;-82
2023/06/16 02:24:00;;;;;;;73.20;8.27;;;18.60;1.00;;;;;;5093725;28;20467;-83
2023/06/16 02:26:26;;;;;;;70.90;7.77;;;18.60;1.00;;;;;;5094106;28;20473;-81
2023/06/16 02:28:53;;;;;;;71.27;7.97;;;18.60;1.00;;;;;;5093928;28;20178;-83
2023/06/16 02:31:18;;;;;;;72.97;7.13;;;18.60;1.00;;;;;;5076496;28;20149;-82
2023/06/16 02:33:44;;;;;;;71.93;6.53;;;18.50;1.00;;;;;;5094195;28;20384;-82
2023/06/16 02:36:10;;;;;;;76.47;8.43;;;18.50;1.00;;;;;;5076603;28;20158;-82
2023/06/16 02:38:36;;;;;;;71.37;7.90;;;18.50;1.00;;;;;;5093944;28;20447;-83
2023/06/16 02:41:02;;;;;;;73.77;7.97;;;18.50;1.00;;;;;;5094345;28;20481;-82
2023/06/16 02:43:27;;;;;;;71.87;7.87;;;18.50;1.00;;;;;;5076289;28;20194;-82
2023/06/16 02:45:54;;;;;;;70.90;7.40;;;18.50;1.00;;;;;;5094144;28;20173;-82
2023/06/16 02:48:19;;;;;;;71.50;7.83;;;18.50;1.00;;;;;;5075908;28;20192;-82
2023/06/16 02:50:45;;;;;;;70.70;7.43;;;18.50;1.00;;;;;;5093825;28;20421;-83
2023/06/16 02:53:13;;;;;;;71.07;7.90;;;18.40;1.00;;;;;;5093563;28;20179;-83
2023/06/16 02:55:39;;;;;;;73.47;8.57;;;18.40;1.00;;;;;;5076065;28;20715;-82
2023/06/16 02:58:05;;;;;;;72.80;7.40;;;18.40;1.00;;;;;;5093617;28;20456;-83
2023/06/16 03:00:30;;;;;;;70.97;7.20;;;18.30;1.00;;;;;;5076194;28;20212;-82
2023/06/16 03:02:56;;;;;;;70.90;8.10;;;18.40;1.00;;;;;;5076064;28;20152;-83
2023/06/16 03:05:23;;;;;;;71.47;7.53;;;18.30;1.00;;;;;;5075705;28;20171;-82
2023/06/16 03:07:49;;;;;;;70.47;7.13;;;18.30;1.00;;;;;;5075908;28;20203;-83
2023/06/16 03:10:15;;;;;;;71.40;8.20;;;18.30;1.00;;;;;;5093613;28;20448;-82
2023/06/16 03:12:40;;;;;;;72.87;7.67;;;18.30;1.00;;;;;;5075699;28;20414;-83
2023/06/16 03:15:06;;;;;;;71.07;7.73;;;18.20;1.00;;;;;;5093493;28;20247;-83
2023/06/16 03:17:33;;;;;;;69.90;7.13;;;18.20;1.00;;;;;;5076016;28;20268;-82
2023/06/16 03:19:58;;;;;;;72.40;7.10;;;18.10;1.00;;;;;;5075186;28;20405;-82
2023/06/16 03:22:24;;;;;;;71.93;7.40;;;18.20;1.00;;;;;;5075791;28;20398;-82
2023/06/16 03:24:50;;;;;;;71.00;7.67;;;18.10;1.00;;;;;;5092728;28;20156;-82
2023/06/16 03:27:16;;;;;;;71.10;7.97;;;18.10;1.00;;;;;;5092174;28;20997;-82
2023/06/16 03:29:43;;;;;;;70.03;7.67;;;18.00;1.00;;;;;;5093376;28;20235;-82
2023/06/16 03:32:08;;;;;;;72.47;7.70;;;18.00;1.00;;;;;;5093714;28;20402;-83
2023/06/16 03:34:35;;;;;;;71.50;7.70;;;18.00;1.00;;;;;;5076178;28;20426;-82
2023/06/16 03:37:01;;;;;;;71.70;7.60;;;18.00;1.00;;;;;;5092945;28;20191;-82
2023/06/16 03:39:27;;;;;;;71.57;8.00;;;18.00;1.00;;;;;;5093547;28;20473;-82
2023/06/16 03:41:52;;;;;;;70.30;7.37;;;18.00;1.00;;;;;;5093566;28;20194;-82
2023/06/16 03:44:18;;;;;;;75.00;10.30;;;17.90;1.00;;;;;;5075949;28;20188;-82
2023/06/16 03:46:44;;;;;;;71.60;8.37;;;17.90;1.00;;;;;;5075771;28;20192;-82
2023/06/16 03:49:10;;;;;;;70.77;8.50;;;17.90;1.00;;;;;;5092996;28;20164;-82
2023/06/16 03:51:37;;;;;;;69.27;7.63;;;17.90;1.00;;;;;;5093342;28;20160;-82
2023/06/16 03:54:03;;;;;;;72.17;7.53;;;18.00;1.00;;;;;;5093225;28;20417;-82
2023/06/16 03:56:29;;;;;;;70.90;9.40;;;18.00;1.00;;;;;;5075733;28;20474;-82
2023/06/16 03:58:55;;;;;;;70.50;8.53;;;17.90;1.00;;;;;;5093104;28;20453;-82
2023/06/16 04:01:22;;;;;;;71.90;9.00;;;17.90;1.00;;;;;;5150562;22;20228;-82
2023/06/16 04:03:49;;;;;;;72.50;8.40;;;17.90;1.00;;;;;;5074501;28;20406;-82
2023/06/16 04:06:15;;;;;;;71.97;9.50;;;17.90;1.00;;;;;;5056599;28;20407;-82
2023/06/16 04:08:41;;;;;;;71.20;8.87;;;17.80;1.00;;;;;;5076409;28;20449;-82
2023/06/16 04:11:07;;;;;;;71.40;8.77;;;17.80;1.00;;;;;;5078190;28;20448;-82
2023/06/16 04:13:33;;;;;;;71.77;9.50;;;17.90;1.00;;;;;;5078433;28;20175;-82
2023/06/16 04:15:58;;;;;;;71.37;8.57;;;17.90;1.00;;;;;;5077362;28;20655;-82
2023/06/16 04:18:24;;;;;;;71.80;10.47;;;17.90;1.00;;;;;;5059394;28;20204;-82
2023/06/16 04:20:50;;;;;;;71.17;9.27;;;17.90;1.00;;;;;;5059743;28;20164;-82
2023/06/16 04:23:16;;;;;;;72.87;10.87;;;17.90;1.00;;;;;;5077399;28;20490;-82
2023/06/16 04:25:42;;;;;;;77.27;9.63;;;17.90;1.00;;;;;;5077416;28;20423;-82
2023/06/16 04:28:13;;;;;;;71.37;9.87;;;17.90;1.00;;;;;;5077502;28;20187;-82
2023/06/16 04:30:40;;;;;;;71.93;11.27;;;17.90;1.00;;;;;;5059216;28;20195;-82
2023/06/16 04:33:07;;;;;;;71.97;8.97;;;17.90;1.00;;;;;;5059602;28;20929;-82
2023/06/16 04:35:33;;;;;;;73.30;10.70;;;18.00;1.00;;;;;;5059094;28;20833;-82
2023/06/16 04:37:59;;;;;;;70.67;9.30;;;18.10;1.00;;;;;;5077569;28;20549;-82
2023/06/16 04:40:29;;;;;;;71.00;7.80;;;18.40;1.00;;;;;;5077330;28;20430;-82
2023/06/16 04:42:55;;;;;;;71.13;7.33;;;18.60;1.00;;;;;;5077044;28;20252;-82
2023/06/16 04:45:21;;;;;;;70.90;7.40;;;18.90;1.00;;;;;;5059039;28;20877;-82
2023/06/16 04:47:47;;;;;;;74.93;7.33;;;19.10;1.00;;;;;;5076811;28;20326;-82
2023/06/16 04:50:16;;;;;;;71.30;7.40;;;19.40;1.00;;;;;;5076884;28;20448;-82
2023/06/16 04:52:42;;;;;;;71.13;6.37;;;19.60;1.00;;;;;;5059126;28;20422;-82
2023/06/16 04:55:08;;;;;;;71.60;7.00;;;19.60;1.00;;;;;;5077438;28;20434;-82
2023/06/16 04:57:35;;;;;;;71.83;7.47;;;19.50;1.00;;;;;;5078032;28;20940;-81
2023/06/16 05:00:05;;;;;;;70.87;7.10;;;19.50;1.00;;;;;;5058942;28;20415;-82
2023/06/16 05:02:30;;;;;;;71.97;7.27;;;19.70;1.00;;;;;;5078264;28;20394;-82
2023/06/16 05:04:56;;;;;;;72.70;6.60;;;19.80;1.00;;;;;;5077472;28;20404;-82
2023/06/16 05:07:22;;;;;;;70.03;7.03;;;20.00;1.00;;;;;;5077697;28;20180;-82
2023/06/16 05:09:48;;;;;;;72.70;8.27;;;20.20;1.00;;;;;;5059822;28;20655;-82
2023/06/16 05:12:13;;;;;;;72.60;6.93;;;20.20;1.00;;;;;;5077260;28;20166;-82
2023/06/16 05:14:39;;;;;;;71.10;7.07;;;20.10;1.00;;;;;;5077628;28;20168;-82
2023/06/16 05:17:05;;;;;;;71.80;6.80;;;20.00;1.00;;;;;;5077596;28;20180;-82
2023/06/16 05:19:32;;;;;;;73.47;7.10;;;19.90;1.00;;;;;;5077251;28;20563;-82
2023/06/16 05:21:58;;;;;;;72.67;6.93;;;19.80;1.00;;;;;;5077750;28;20402;-82
2023/06/16 05:24:24;;;;;;;73.10;7.40;;;19.70;1.00;;;;;;5077998;28;20401;-82
2023/06/16 05:26:50;;;;;;;72.80;7.50;;;19.80;1.00;;;;;;5059131;28;20451;-85
2023/06/16 05:29:16;;;;;;;74.63;7.23;;;19.80;1.00;;;;;;5077826;28;20471;-82
2023/06/16 05:31:41;;;;;;;82.10;8.50;;;19.80;1.00;;;;;;5077662;28;20433;-82
2023/06/16 05:34:07;;;;;;;71.63;7.27;;;19.70;1.00;;;;;;5077914;28;20228;-83
2023/06/16 05:36:35;;;;;;;73.80;7.57;;;19.60;1.00;;;;;;5076965;28;20197;-82
2023/06/16 05:39:02;;;;;;;72.90;6.90;;;19.60;1.00;;;;;;5077658;28;20189;-82
2023/06/16 05:41:28;;;;;;;73.67;7.10;;;19.50;1.00;;;;;;5075999;28;20402;-82
2023/06/16 05:43:55;;;;;;;72.30;7.63;;;19.50;1.00;;;;;;5057997;28;20414;-82
2023/06/16 05:46:21;;;;;;;76.60;8.20;;;19.50;1.00;;;;;;5076040;28;20545;-82
2023/06/16 05:48:47;;;;;;;70.90;6.80;;;19.50;1.00;;;;;;5057919;28;20413;-82
2023/06/16 05:51:13;;;;;;;72.57;7.97;;;19.40;1.00;;;;;;5074737;28;20773;-81
2023/06/16 05:53:39;;;;;;;71.10;7.60;;;19.40;1.00;;;;;;5074660;28;20245;-81
2023/06/16 05:56:04;;;;;;;73.10;7.83;;;19.30;1.00;;;;;;5074652;28;20895;-81
2023/06/16 05:58:33;;;;;;;73.47;7.50;;;19.20;1.00;;;;;;5074370;28;20450;-82
2023/06/16 06:00:59;;;;;;;72.57;7.50;;;19.20;1.00;;;;;;5074738;28;20517;-81
2023/06/16 06:03:25;;;;;;;71.70;7.67;;;19.20;1.00;;;;;;5074395;28;20433;-81
2023/06/16 06:05:50;;;;;;;74.70;8.40;;;19.30;1.00;;;;;;5074684;28;20165;-81
2023/06/16 06:08:16;;;;;;;73.33;7.50;;;19.30;1.00;;;;;;5075068;28;20184;-81
2023/06/16 06:10:42;;;;;;;75.47;8.03;;;19.40;1.00;;;;;;5074613;28;20168;-81
2023/06/16 06:13:07;;;;;;;74.30;7.87;;;19.40;1.00;;;;;;5056416;28;20168;-81
2023/06/16 06:15:33;;;;;;;73.90;8.33;;;19.40;1.00;;;;;;5074811;28;20654;-81
2023/06/16 06:17:59;;;;;;;71.07;7.10;;;19.40;1.00;;;;;;5074440;28;20193;-81
2023/06/16 06:20:25;;;;;;;73.60;8.30;;;19.40;1.00;;;;;;5074337;28;20166;-81
2023/06/16 06:22:50;;;;;;;71.30;7.50;;;19.60;1.00;;;;;;5056093;28;20227;-81
2023/06/16 06:25:16;;;;;;;77.10;8.30;;;19.60;1.00;;;;;;5074084;28;20820;-81
2023/06/16 06:27:42;;;;;;;73.60;7.97;;;19.70;1.00;;;;;;5074140;28;20269;-81
2023/06/16 06:30:08;;;;;;;76.60;8.07;;;19.60;1.00;;;;;;5074191;28;20172;-82
2023/06/16 06:32:34;;;;;;;73.30;7.60;;;19.50;1.00;;;;;;5074895;28;20572;-81
2023/06/16 06:34:59;;;;;;;71.07;7.23;;;19.50;1.00;;;;;;5057565;28;20465;-82
2023/06/16 06:37:30;;;;;;;72.27;7.10;;;19.40;1.00;;;;;;5076394;28;20184;-82
2023/06/16 06:39:56;;;;;;;71.53;7.97;;;19.50;1.00;;;;;;5057976;28;20165;-82
2023/06/16 06:42:23;;;;;;;75.77;7.70;;;19.50;1.00;;;;;;5075896;28;20779;-82
2023/06/16 06:44:49;;;;;;;73.57;8.03;;;19.50;1.00;;;;;;5076375;28;20394;-82
2023/06/16 06:49:50;;;;;;;72.83;7.40;;;19.60;1.00;;;;;;5276009;22;20454;-82
2023/06/16 06:52:25;;;;;;;75.43;7.67;;;19.70;1.00;;;;;;5139030;22;20486;-82
2023/06/16 06:54:56;;;;;;;73.67;7.17;;;19.70;1.00;;;;;;5057151;28;20481;-82
2023/06/16 06:57:22;;;;;;;72.60;7.67;;;19.80;1.00;;;;;;5075470;28;20433;-82
2023/06/16 06:59:48;;;;;;;71.97;8.33;;;19.80;1.00;;;;;;5075510;28;20479;-81
2023/06/16 07:02:14;;;;;;;77.83;8.60;;;19.80;1.00;;;;;;5076616;28;20414;-82
2023/06/16 07:04:42;;;;;;;76.07;10.37;;;19.90;1.00;;;;;;5076268;28;20192;-81
2023/06/16 07:07:08;;;;;;;77.40;8.40;;;20.00;1.00;;;;;;5076207;28;20415;-81
2023/06/16 07:09:33;;;;;;;74.60;7.67;;;20.00;1.00;;;;;;5076542;28;20415;-82
2023/06/16 07:11:59;;;;;;;75.10;8.37;;;20.10;1.00;;;;;;5075671;28;20400;-82
2023/06/16 07:14:26;;;;;;;77.53;7.50;;;20.20;1.00;;;;;;5076552;28;20162;-82
2023/06/16 07:17:02;;;;;;;76.60;8.10;;;20.10;1.00;;;;;;5076292;28;20647;-82
2023/06/16 07:19:28;;;;;;;75.53;8.50;;;20.10;1.00;;;;;;5057477;28;20450;-82
2023/06/16 07:21:54;;;;;;;75.83;9.43;;;20.10;1.00;;;;;;5075066;28;20489;-81
2023/06/16 07:24:23;;;;;;;81.07;8.60;;;20.20;1.00;;;;;;5075192;28;20171;-81
2023/06/16 07:26:52;;;;;;;74.83;8.30;;;20.30;1.00;;;;;;5056624;28;20856;-83
2023/06/16 07:29:20;;;;;;;73.53;8.20;;;20.40;1.00;;;;;;5074021;28;20414;-83
2023/06/16 07:31:49;;;;;;;82.23;9.00;;;20.40;1.00;;;;;;5056026;28;20433;-82
2023/06/16 07:34:18;;;;;;;76.50;9.17;;;20.40;1.00;;;;;;5074560;28;20398;-80
2023/06/16 07:37:16;;;;;;;79.97;8.80;;;20.40;1.00;;;;;;5073784;28;20432;-81
2023/06/16 07:39:41;;;;;;;77.23;9.10;;;20.50;1.00;;;;;;5074192;28;20969;-81
2023/06/16 07:42:07;;;;;;;82.23;9.53;;;20.60;1.00;;;;;;5074324;28;20456;-81
2023/06/16 07:44:33;;;;;;;74.70;9.27;;;20.60;1.00;;;;;;5078081;28;20165;-81
2023/06/16 07:46:58;;;;;;;76.27;6.80;;;20.70;1.00;;;;;;5060557;28;20280;-82
2023/06/16 07:49:24;;;;;;;76.23;8.23;;;20.60;1.00;;;;;;5077756;28;20172;-81
2023/06/16 07:51:50;;;;;;;74.57;7.70;;;20.70;1.00;;;;;;5077714;28;20183;-81
2023/06/16 07:54:17;;;;;;;76.23;8.40;;;20.70;1.00;;;;;;5077679;28;20182;-81
2023/06/16 07:56:42;;;;;;;78.73;7.23;;;20.80;1.00;;;;;;5077416;28;20432;-81
2023/06/16 07:59:08;;;;;;;73.57;7.77;;;20.90;1.00;;;;;;5082835;28;20444;-82
2023/06/16 08:01:34;;;;;;;74.57;8.17;;;21.00;1.00;;;;;;5083922;28;20195;-83
2023/06/16 08:04:00;;;;;;;73.00;6.87;;;21.00;1.00;;;;;;5085642;28;20160;-83
2023/06/16 08:06:27;;;;;;;73.43;8.50;;;21.10;1.00;;;;;;5074344;28;20467;-82
2023/06/16 08:08:53;;;;;;;71.57;8.50;;;21.10;1.00;;;;;;5086937;28;20488;-83
2023/06/16 08:11:19;;;;;;;74.30;9.57;;;21.20;1.00;;;;;;5086087;28;20402;-83
2023/06/16 08:13:57;;;;;;;82.80;9.20;;;21.20;1.00;;;;;;5086028;28;20426;-83
2023/06/16 08:16:26;;;;;;;73.00;8.30;;;21.30;1.00;;;;;;5088008;28;20394;-82
2023/06/16 08:18:55;;;;;;;72.27;8.60;;;21.40;1.00;;;;;;5087352;28;20847;-83
2023/06/16 08:21:20;;;;;;;72.07;8.97;;;21.40;1.00;;;;;;5087471;28;20951;-83
2023/06/16 08:23:47;;;;;;;72.70;9.67;;;21.50;1.00;;;;;;5084205;28;20391;-83
2023/06/16 08:26:12;;;;;;;76.40;9.77;;;21.50;1.00;;;;;;5069440;28;20259;-83
2023/06/16 08:29:21;;;;;;;71.07;7.97;;;21.50;1.00;;;;;;5119798;22;20849;-83
2023/06/16 08:31:57;;;;;;;72.37;7.67;;;21.60;1.00;;;;;;5073501;28;20176;-83
2023/06/16 08:34:29;;;;;;;72.10;8.67;;;21.70;1.00;;;;;;5085735;28;20400;-83
2023/06/16 08:37:13;;;;;;;;;;;;;;;;;;;;;
2023/06/16 08:39:51;;;;;;;72.97;8.47;;;21.80;1.00;;;;;;5085645;28;20513;-83
2023/06/16 08:42:41;;;;;;;75.00;9.80;;;21.80;1.00;;;;;;5067655;28;20500;-83
2023/06/16 08:45:40;;;;;;;74.07;12.60;;;21.90;1.00;;;;;;5067111;28;20792;-83
2023/06/16 08:48:11;;;;;;;74.00;12.40;;;21.90;1.00;;;;;;5002820;28;20465;-83
2023/06/16 08:50:52;;;;;;;74.50;12.10;;;22.00;1.00;;;;;;5084832;28;20931;-83
2023/06/16 08:53:34;;;;;;;73.47;11.83;;;22.10;1.00;;;;;;5063721;28;20406;-82
2023/06/16 08:56:17;;;;;;;74.37;12.70;;;22.10;1.00;;;;;;5079546;28;20434;-82
2023/06/16 08:58:53;;;;;;;74.43;12.00;;;22.00;1.00;;;;;;5077294;28;20453;-82
2023/06/16 09:01:39;;;;;;;;;;;;;;;;;;;;;
2023/06/16 09:04:41;;;;;;;77.00;11.80;;;22.30;1.00;;;;;;5080363;28;20482;-82
2023/06/16 09:07:19;;;;;;;73.37;11.03;;;22.40;1.00;;;;;;5083120;28;20777;-82
2023/06/16 09:14:18;;;;;;;;;;;;;;;;;;;;;
2023/06/16 09:23:03;;;;;;;76.30;9.83;;;22.80;1.00;;;;;;4080937;26;20478;-81
2023/06/16 09:25:54;;;;;;;74.37;10.47;;;22.90;1.00;;;;;;4945274;29;20411;-83
2023/06/16 09:29:18;;;;;;;74.70;10.70;;;23.00;1.00;;;;;;4945018;29;20792;-82
2023/06/16 09:32:26;;;;;;;74.93;9.00;;;23.20;1.00;;;;;;4924039;29;20496;-83
2023/06/16 09:34:52;;;;;;;77.27;9.60;;;23.40;1.00;;;;;;4922500;29;20469;-82
2023/06/16 09:37:20;;;;;;;74.33;9.33;;;23.50;1.00;;;;;;4923097;29;20429;-83
2023/06/16 09:39:46;;;;;;;73.23;10.33;;;23.70;1.00;;;;;;4925950;29;20252;-83
2023/06/16 09:42:12;;;;;;;74.67;7.70;;;23.80;1.00;;;;;;4951360;28;20409;-82
2023/06/16 09:44:42;;;;;;;72.10;6.90;;;24.00;1.00;;;;;;5021551;28;20401;-83
2023/06/16 09:47:13;;;;;;;73.80;7.17;;;24.20;1.00;;;;;;5022360;28;20429;-82
2023/06/16 09:49:39;;;;;;;70.37;6.17;;;24.40;1.00;;;;;;5023631;28;20417;-82
2023/06/16 09:52:18;;;;;;;124.37;111.10;;;24.60;1.00;;;;;;5022511;28;20417;-82
2023/06/16 09:54:57;;;;;;;71.50;6.43;;;24.80;1.00;;;;;;5021353;28;20173;-82
2023/06/16 09:57:23;;;;;;;75.40;5.00;;;25.00;1.00;;;;;;5020926;28;20543;-83
2023/06/16 09:59:49;;;;;;;72.17;5.07;;;25.00;1.00;;;;;;5021209;28;20468;-82
2023/06/16 10:02:18;;;;;;;73.00;5.47;;;25.10;1.00;;;;;;5189310;23;20486;-82
2023/06/16 10:04:46;;;;;;;82.47;5.33;;;25.20;1.00;;;;;;5070875;28;20203;-82
2023/06/16 10:07:18;;;;;;;73.30;4.93;;;25.30;1.00;;;;;;5071431;28;20429;-82
2023/06/16 10:09:47;;;;;;;70.87;4.83;;;25.30;1.00;;;;;;5071072;28;20425;-82
2023/06/16 10:12:18;;;;;;;69.90;5.10;;;25.40;1.00;;;;;;5089819;28;20405;-82
2023/06/16 10:14:45;;;;;;;72.33;6.13;;;25.50;1.00;;;;;;5089541;28;20396;-82
2023/06/16 10:17:16;;;;;;;70.87;5.60;;;25.60;1.00;;;;;;5089212;28;20418;-82
2023/06/16 10:19:48;;;;;;;71.67;6.20;;;25.60;1.00;;;;;;5070520;28;20521;-82
2023/06/16 10:22:15;;;;;;;71.57;5.77;;;25.70;1.00;;;;;;5087966;28;20385;-81
2023/06/16 10:24:42;;;;;;;71.17;6.13;;;25.90;1.00;;;;;;5089011;28;20403;-82
2023/06/16 10:27:10;;;;;;;73.40;5.27;;;26.10;1.00;;;;;;5089313;28;20422;-81
2023/06/16 10:29:38;;;;;;;70.93;6.27;;;26.20;1.00;;;;;;5071285;28;20414;-81
2023/06/16 10:32:33;;;;;;;70.87;6.83;;;26.30;1.00;;;;;;5071692;28;20414;-82
2023/06/16 10:35:07;;;;;;;71.93;7.07;;;26.50;1.00;;;;;;5087036;28;20782;-82
2023/06/16 10:37:33;;;;;;;71.40;6.53;;;26.70;1.00;;;;;;5088100;28;20422;-82
2023/06/16 10:40:12;;;;;;;74.90;7.80;;;26.90;1.00;;;;;;5069743;28;20453;-82
2023/06/16 10:42:40;;;;;;;71.50;7.70;;;27.10;1.00;;;;;;5089902;28;20144;-82
2023/06/16 10:45:26;;;;;;;78.60;6.93;;;27.20;1.00;;;;;;5074506;28;20410;-82
2023/06/16 10:47:56;;;;;;;71.57;6.07;;;27.10;1.00;;;;;;5092833;28;20474;-82
2023/06/16 10:50:40;;;;;;;71.20;6.00;;;27.00;1.00;;;;;;5091709;28;20457;-82
2023/06/16 10:53:16;;;;;;;71.97;5.20;;;27.10;1.00;;;;;;5091565;28;20442;-82
2023/06/16 10:55:45;;;;;;;72.60;5.50;;;27.40;1.00;;;;;;5074070;28;20418;-82
2023/06/16 10:58:16;;;;;;;71.60;5.10;;;27.40;1.00;;;;;;5072626;28;20461;-82
2023/06/16 11:00:45;;;;;;;71.30;4.67;;;27.30;1.00;;;;;;5071144;28;20844;-82
2023/06/16 11:03:12;;;;;;;72.50;4.80;;;27.60;1.00;;;;;;5088277;28;20413;-82
2023/06/16 11:05:41;;;;;;;73.03;4.83;;;27.70;1.00;;;;;;5071179;28;20407;-82
2023/06/16 11:08:08;;;;;;;70.97;4.47;;;27.90;1.00;;;;;;5088416;28;20426;-83
2023/06/16 11:10:54;;;;;;;71.57;4.67;;;28.10;1.00;;;;;;5088364;28;20476;-82
2023/06/16 11:13:32;;;;;;;71.07;4.47;;;28.10;1.00;;;;;;5087992;28;20390;-82
2023/06/16 11:15:58;;;;;;;74.27;5.73;;;27.90;1.00;;;;;;5070810;28;20418;-82
2023/06/16 11:18:25;;;;;;;70.30;4.40;;;27.80;1.00;;;;;;5073889;28;20469;-82
2023/06/16 11:20:59;;;;;;;73.70;5.27;;;28.00;1.00;;;;;;5092109;28;20415;-82
2023/06/16 11:23:25;;;;;;;70.90;4.00;;;28.00;1.00;;;;;;5073736;28;20409;-82
2023/06/16 11:25:51;;;;;;;73.00;5.00;;;27.90;1.00;;;;;;5092554;28;20398;-82
2023/06/16 11:28:20;;;;;;;69.87;4.37;;;28.10;1.00;;;;;;5092449;28;20452;-82
2023/06/16 11:30:47;;;;;;;70.80;4.90;;;28.20;1.00;;;;;;5092094;28;20445;-82
2023/06/16 11:33:21;;;;;;;71.30;4.80;;;28.20;1.00;;;;;;5073848;28;20406;-82
2023/06/16 11:35:47;;;;;;;70.10;4.67;;;28.30;1.00;;;;;;5074838;28;20406;-81
2023/06/16 11:38:21;;;;;;;69.50;4.67;;;28.30;1.00;;;;;;5074104;28;20457;-82
2023/06/16 11:40:48;;;;;;;70.77;4.07;;;28.40;1.00;;;;;;5091188;28;20191;-82
2023/06/16 11:43:16;;;;;;;76.67;5.20;;;28.40;1.00;;;;;;5091446;28;20394;-82
2023/06/16 11:45:41;;;;;;;71.67;4.83;;;28.50;1.00;;;;;;5072696;28;20804;-84
2023/06/16 11:48:09;;;;;;;69.70;4.83;;;28.60;1.00;;;;;;5073333;28;20463;-82
2023/06/16 11:50:36;;;;;;;70.60;4.57;;;28.70;1.00;;;;;;5073583;28;20235;-82
2023/06/16 11:53:01;;;;;;;71.07;4.80;;;28.80;1.00;;;;;;5073795;28;20413;-82
2023/06/16 11:55:27;;;;;;;73.47;5.10;;;28.90;1.00;;;;;;5074185;28;20414;-82
2023/06/16 11:57:53;;;;;;;73.70;4.33;;;28.80;1.00;;;;;;5073585;28;20203;-82
2023/06/16 12:00:21;;;;;;;72.00;4.90;;;29.00;1.00;;;;;;5091339;28;20189;-82
2023/06/16 12:02:49;;;;;;;70.87;5.10;;;29.10;1.00;;;;;;5090969;28;20160;-82
2023/06/16 12:05:24;;;;;;;73.57;5.07;;;29.10;1.00;;;;;;5074245;28;20500;-82
2023/06/16 12:07:50;;;;;;;70.83;5.00;;;29.10;1.00;;;;;;5073449;28;20430;-82
2023/06/16 12:10:16;;;;;;;71.00;5.90;;;29.00;1.00;;;;;;5072930;28;20416;-82
2023/06/16 12:12:43;;;;;;;71.10;5.97;;;28.90;1.00;;;;;;5090907;28;20156;-82
2023/06/16 12:15:14;;;;;;;79.63;6.53;;;28.80;1.00;;;;;;5073650;28;20421;-82
2023/06/16 12:17:39;;;;;;;72.53;6.23;;;28.80;1.00;;;;;;5091249;28;20422;-82
2023/06/16 12:20:09;;;;;;;72.03;6.40;;;29.00;1.00;;;;;;5073773;28;20482;-82
2023/06/16 12:22:38;;;;;;;74.50;7.73;;;29.10;1.00;;;;;;5073818;28;20183;-82
2023/06/16 12:25:09;;;;;;;74.17;6.67;;;29.10;1.00;;;;;;5073267;28;20486;-82
2023/06/16 12:27:35;;;;;;;70.37;6.50;;;29.10;1.00;;;;;;5090256;28;20414;-82
2023/06/16 12:30:03;;;;;;;70.13;5.77;;;28.90;1.00;;;;;;5089878;28;20413;-82
2023/06/16 12:32:33;;;;;;;75.23;6.43;;;28.80;1.00;;;;;;5089289;28;20415;-81
2023/06/16 12:34:59;;;;;;;73.60;6.53;;;28.90;1.00;;;;;;5088926;28;20398;-82
2023/06/16 12:37:30;;;;;;;75.27;6.70;;;29.00;1.00;;;;;;5075859;28;20461;-81
2023/06/16 12:40:10;;;;;;;70.87;6.40;;;29.10;1.00;;;;;;5094617;28;20458;-81
2023/06/16 12:42:37;;;;;;;71.90;5.90;;;29.00;1.00;;;;;;5094272;28;20478;-82
2023/06/16 12:45:05;;;;;;;71.03;6.40;;;29.00;1.00;;;;;;5093307;28;20437;-81
2023/06/16 12:47:35;;;;;;;72.70;6.07;;;29.10;1.00;;;;;;5088940;28;20430;-82
2023/06/16 12:50:04;;;;;;;70.27;5.40;;;29.20;1.00;;;;;;5070917;28;20406;-82
2023/06/16 12:52:30;;;;;;;70.17;5.20;;;29.00;1.00;;;;;;5071695;28;20418;-82
2023/06/16 12:54:59;;;;;;;71.87;5.93;;;29.10;1.00;;;;;;5089210;28;20460;-82
2023/06/16 12:57:25;;;;;;;72.77;6.43;;;29.00;1.00;;;;;;5089623;28;20426;-82
2023/06/16 12:59:52;;;;;;;70.70;6.17;;;29.10;1.00;;;;;;5088232;28;20497;-83
2023/06/16 13:02:18;;;;;;;72.27;7.00;;;29.20;1.00;;;;;;5087259;28;20422;-83
2023/06/16 13:04:44;;;;;;;70.60;5.47;;;29.40;1.00;;;;;;5087859;28;20394;-83
2023/06/16 13:07:10;;;;;;;72.37;6.13;;;29.50;1.00;;;;;;5070827;28;20766;-83
2023/06/16 13:09:37;;;;;;;72.37;5.73;;;29.70;1.00;;;;;;5071319;28;20179;-83
2023/06/16 13:12:04;;;;;;;71.27;4.93;;;29.60;1.00;;;;;;5088837;28;20195;-83